Archival Weather

Longyear

Longyear, Svalbard (ENSB)

Report from: Wednesday, December 6, 2023 3:50 PM UTC
Current time: Saturday, March 2, 2024 9:01 AM UTC

Current weather – Weather history – Daily summaries
Weather forecast

Temperature-4.0°C (24.8°F)
Wind chill-11.6°C (11.1°F)
Dew point-8.0°C (17.6°F)
Winds 16 kts (8.2 m/s, 18.4 mph) East-Southeast (120°)
Visibility6.2 mi. (10 km)
Clouds Few clouds 2,500 ft. (762 m)
Scattered clouds 18,000 ft. (5,486 m)
Altimeter30.53 in.Hg (1034 mB)
Relative humidity74 %
Density altitude-2,994 ft. (-913 m)
Flight conditions Visual Meteorological Conditions
Raw dataENSB 061550Z 12016KT 9999 FEW025 SCT180 M04/M08 Q1034 RMK WIND 1400FT 11022KT
An error has occurred. This application may no longer respond until reloaded. Reload 🗙